sensor_id;sensor_type;location;lat;lon;timestamp;pressure;altitude;pressure_sealevel;temperature;humidity
75497;BME280;64074;47.540;19.072;2023-10-19T00:00:14;100180.44;;;10.89;61.21
75497;BME280;64074;47.540;19.072;2023-10-19T00:03:26;100188.56;;;10.89;60.23
75497;BME280;64074;47.540;19.072;2023-10-19T00:06:36;100170.38;;;10.89;59.85
75497;BME280;64074;47.540;19.072;2023-10-19T00:10:01;100173.63;;;10.91;58.77
75497;BME280;64074;47.540;19.072;2023-10-19T00:13:19;100154.41;;;11.01;59.08
75497;BME280;64074;47.540;19.072;2023-10-19T00:16:43;100159.47;;;10.94;58.96
75497;BME280;64074;47.540;19.072;2023-10-19T00:20:26;100156.84;;;10.75;59.35
75497;BME280;64074;47.540;19.072;2023-10-19T00:23:57;100150.69;;;10.84;59.82
75497;BME280;64074;47.540;19.072;2023-10-19T00:27:02;100134.53;;;10.92;59.44
75497;BME280;64074;47.540;19.072;2023-10-19T00:30:22;100131.63;;;10.75;59.74
75497;BME280;64074;47.540;19.072;2023-10-19T00:33:36;100137.13;;;10.84;59.79
75497;BME280;64074;47.540;19.072;2023-10-19T00:36:55;100130.72;;;10.79;60.27
75497;BME280;64074;47.540;19.072;2023-10-19T00:40:18;100133.63;;;10.83;60.21
75497;BME280;64074;47.540;19.072;2023-10-19T00:43:46;100133.22;;;10.62;60.51
75497;BME280;64074;47.540;19.072;2023-10-19T00:46:57;100120.56;;;10.85;60.56
75497;BME280;64074;47.540;19.072;2023-10-19T00:50:14;100127.78;;;10.90;60.18
75497;BME280;64074;47.540;19.072;2023-10-19T00:53:46;100123.09;;;10.82;60.81
75497;BME280;64074;47.540;19.072;2023-10-19T00:57:11;100117.75;;;10.90;60.51
75497;BME280;64074;47.540;19.072;2023-10-19T01:00:37;100107.72;;;10.91;60.32
75497;BME280;64074;47.540;19.072;2023-10-19T01:03:56;100097.94;;;10.90;60.05
75497;BME280;64074;47.540;19.072;2023-10-19T01:07:14;100097.19;;;10.75;60.51
75497;BME280;64074;47.540;19.072;2023-10-19T01:10:29;100089.44;;;10.83;59.89
75497;BME280;64074;47.540;19.072;2023-10-19T01:13:41;100092.63;;;10.85;59.47
75497;BME280;64074;47.540;19.072;2023-10-19T01:16:54;100084.38;;;10.90;59.38
75497;BME280;64074;47.540;19.072;2023-10-19T01:20:10;100084.72;;;10.61;61.15
75497;BME280;64074;47.540;19.072;2023-10-19T01:23:46;100082.81;;;10.47;62.01
75497;BME280;64074;47.540;19.072;2023-10-19T01:27:18;100081.22;;;10.74;61.52
75497;BME280;64074;47.540;19.072;2023-10-19T01:30:45;100083.81;;;10.93;60.93
75497;BME280;64074;47.540;19.072;2023-10-19T01:34:22;100073.88;;;10.74;61.54
75497;BME280;64074;47.540;19.072;2023-10-19T01:37:46;100070.66;;;10.72;61.66
75497;BME280;64074;47.540;19.072;2023-10-19T01:40:51;100061.84;;;10.67;62.76
75497;BME280;64074;47.540;19.072;2023-10-19T01:44:01;100059.63;;;10.69;63.74
75497;BME280;64074;47.540;19.072;2023-10-19T01:47:29;100052.69;;;10.76;63.60
75497;BME280;64074;47.540;19.072;2023-10-19T01:50:49;100045.66;;;10.75;65.92
75497;BME280;64074;47.540;19.072;2023-10-19T01:54:10;100048.66;;;10.60;66.98
75497;BME280;64074;47.540;19.072;2023-10-19T01:57:19;100035.81;;;10.38;68.88
75497;BME280;64074;47.540;19.072;2023-10-19T02:00:25;100036.53;;;10.58;67.46
75497;BME280;64074;47.540;19.072;2023-10-19T02:03:36;100037.44;;;10.53;68.38
75497;BME280;64074;47.540;19.072;2023-10-19T02:06:50;100028.50;;;10.25;69.81
75497;BME280;64074;47.540;19.072;2023-10-19T02:10:07;100037.56;;;10.48;69.46
75497;BME280;64074;47.540;19.072;2023-10-19T02:13:35;100031.22;;;10.25;70.89
75497;BME280;64074;47.540;19.072;2023-10-19T02:16:43;100028.50;;;10.39;69.65
75497;BME280;64074;47.540;19.072;2023-10-19T02:20:00;100024.91;;;10.30;70.16
75497;BME280;64074;47.540;19.072;2023-10-19T02:23:34;100013.84;;;10.40;70.63
75497;BME280;64074;47.540;19.072;2023-10-19T02:26:50;100013.47;;;10.46;71.30
75497;BME280;64074;47.540;19.072;2023-10-19T02:30:12;100009.75;;;10.29;72.08
75497;BME280;64074;47.540;19.072;2023-10-19T02:33:21;100014.44;;;10.37;71.48
75497;BME280;64074;47.540;19.072;2023-10-19T02:36:31;100005.22;;;10.38;71.56
75497;BME280;64074;47.540;19.072;2023-10-19T02:39:41;100007.72;;;10.34;72.12
75497;BME280;64074;47.540;19.072;2023-10-19T02:42:53;99996.31;;;10.24;72.78
75497;BME280;64074;47.540;19.072;2023-10-19T02:46:20;99996.59;;;10.22;73.24
75497;BME280;64074;47.540;19.072;2023-10-19T02:49:43;99993.59;;;10.24;73.34
75497;BME280;64074;47.540;19.072;2023-10-19T02:53:02;99983.41;;;10.15;73.74
75497;BME280;64074;47.540;19.072;2023-10-19T02:56:28;99988.81;;;10.15;73.59
75497;BME280;64074;47.540;19.072;2023-10-19T02:59:45;99982.41;;;10.11;74.74
75497;BME280;64074;47.540;19.072;2023-10-19T03:03:05;99977.19;;;10.01;75.24
75497;BME280;64074;47.540;19.072;2023-10-19T03:06:21;99967.16;;;10.02;75.82
75497;BME280;64074;47.540;19.072;2023-10-19T03:09:24;99964.75;;;10.00;75.81
75497;BME280;64074;47.540;19.072;2023-10-19T03:12:42;99954.63;;;9.92;76.22
75497;BME280;64074;47.540;19.072;2023-10-19T03:15:55;99954.34;;;9.94;76.51
75497;BME280;64074;47.540;19.072;2023-10-19T03:19:05;99947.00;;;9.94;77.50
75497;BME280;64074;47.540;19.072;2023-10-19T03:22:25;99942.56;;;9.71;77.30
75497;BME280;64074;47.540;19.072;2023-10-19T03:25:58;99927.03;;;9.90;77.25
75497;BME280;64074;47.540;19.072;2023-10-19T03:29:33;99930.97;;;9.98;76.66
75497;BME280;64074;47.540;19.072;2023-10-19T03:32:50;99925.34;;;9.94;77.40
75497;BME280;64074;47.540;19.072;2023-10-19T03:36:02;99921.81;;;9.80;78.98
75497;BME280;64074;47.540;19.072;2023-10-19T03:39:15;99921.03;;;9.79;78.79
75497;BME280;64074;47.540;19.072;2023-10-19T03:42:40;99913.59;;;9.85;77.88
75497;BME280;64074;47.540;19.072;2023-10-19T03:46:04;99913.22;;;9.92;76.91
75497;BME280;64074;47.540;19.072;2023-10-19T03:50:16;99910.38;;;9.83;78.70
75497;BME280;64074;47.540;19.072;2023-10-19T03:53:37;99919.31;;;9.83;77.87
75497;BME280;64074;47.540;19.072;2023-10-19T03:57:10;99906.06;;;9.82;78.13
75497;BME280;64074;47.540;19.072;2023-10-19T04:00:35;99909.28;;;9.84;78.01
75497;BME280;64074;47.540;19.072;2023-10-19T04:03:45;99897.97;;;9.82;78.50
75497;BME280;64074;47.540;19.072;2023-10-19T04:07:03;99899.69;;;9.92;77.73
75497;BME280;64074;47.540;19.072;2023-10-19T04:10:36;99900.56;;;9.87;78.39
75497;BME280;64074;47.540;19.072;2023-10-19T04:13:54;99889.34;;;9.80;78.04
75497;BME280;64074;47.540;19.072;2023-10-19T04:17:14;99881.00;;;9.90;78.31
75497;BME280;64074;47.540;19.072;2023-10-19T04:20:32;99877.00;;;9.87;77.97
75497;BME280;64074;47.540;19.072;2023-10-19T04:24:10;99871.41;;;9.70;79.41
75497;BME280;64074;47.540;19.072;2023-10-19T04:27:18;99864.47;;;9.78;79.05
75497;BME280;64074;47.540;19.072;2023-10-19T04:30:33;99852.53;;;9.79;79.71
75497;BME280;64074;47.540;19.072;2023-10-19T04:33:47;99858.34;;;9.86;79.66
75497;BME280;64074;47.540;19.072;2023-10-19T04:37:02;99857.16;;;9.78;79.59
75497;BME280;64074;47.540;19.072;2023-10-19T04:40:09;99853.13;;;9.76;79.34
75497;BME280;64074;47.540;19.072;2023-10-19T04:43:20;99852.16;;;9.72;79.74
75497;BME280;64074;47.540;19.072;2023-10-19T04:46:33;99837.22;;;9.74;79.87
75497;BME280;64074;47.540;19.072;2023-10-19T04:49:58;99839.00;;;9.79;80.36
75497;BME280;64074;47.540;19.072;2023-10-19T04:53:26;99833.84;;;9.91;79.47
75497;BME280;64074;47.540;19.072;2023-10-19T04:56:36;99831.16;;;9.91;80.04
75497;BME280;64074;47.540;19.072;2023-10-19T05:00:00;99829.97;;;9.97;79.39
75497;BME280;64074;47.540;19.072;2023-10-19T05:03:10;99831.38;;;9.81;80.64
75497;BME280;64074;47.540;19.072;2023-10-19T05:06:48;99829.84;;;9.88;79.87
75497;BME280;64074;47.540;19.072;2023-10-19T05:10:07;99837.97;;;9.88;80.14
75497;BME280;64074;47.540;19.072;2023-10-19T05:13:23;99835.28;;;9.75;80.32
75497;BME280;64074;47.540;19.072;2023-10-19T05:16:35;99835.38;;;9.83;80.68
75497;BME280;64074;47.540;19.072;2023-10-19T05:19:44;99835.19;;;9.94;79.22
75497;BME280;64074;47.540;19.072;2023-10-19T05:22:54;99844.22;;;9.75;79.92
75497;BME280;64074;47.540;19.072;2023-10-19T05:26:03;99834.97;;;9.90;79.42
75497;BME280;64074;47.540;19.072;2023-10-19T05:29:17;99842.09;;;9.86;79.54
75497;BME280;64074;47.540;19.072;2023-10-19T05:32:36;99838.78;;;9.89;79.77
75497;BME280;64074;47.540;19.072;2023-10-19T05:36:10;99839.81;;;9.93;79.95
75497;BME280;64074;47.540;19.072;2023-10-19T05:39:27;99834.38;;;9.79;80.33
75497;BME280;64074;47.540;19.072;2023-10-19T05:42:42;99834.66;;;10.05;79.80
75497;BME280;64074;47.540;19.072;2023-10-19T05:45:48;99846.81;;;9.80;80.50
75497;BME280;64074;47.540;19.072;2023-10-19T05:49:03;99840.09;;;9.92;80.27
75497;BME280;64074;47.540;19.072;2023-10-19T05:52:43;99842.19;;;9.81;79.64
75497;BME280;64074;47.540;19.072;2023-10-19T05:56:07;99832.56;;;10.02;80.10
75497;BME280;64074;47.540;19.072;2023-10-19T05:59:15;99823.09;;;10.13;79.66
75497;BME280;64074;47.540;19.072;2023-10-19T06:02:28;99825.78;;;10.13;79.33
75497;BME280;64074;47.540;19.072;2023-10-19T06:05:50;99838.75;;;10.16;78.27
75497;BME280;64074;47.540;19.072;2023-10-19T06:09:00;99831.03;;;10.24;78.21
75497;BME280;64074;47.540;19.072;2023-10-19T06:12:19;99826.28;;;10.15;77.99
75497;BME280;64074;47.540;19.072;2023-10-19T06:15:48;99824.50;;;10.11;78.98
75497;BME280;64074;47.540;19.072;2023-10-19T06:18:59;99828.00;;;10.11;78.99
75497;BME280;64074;47.540;19.072;2023-10-19T06:22:28;99827.09;;;10.16;79.36
75497;BME280;64074;47.540;19.072;2023-10-19T06:25:56;99810.97;;;10.11;79.25
75497;BME280;64074;47.540;19.072;2023-10-19T06:29:30;99806.03;;;10.13;79.07
75497;BME280;64074;47.540;19.072;2023-10-19T06:32:48;99802.16;;;10.05;79.26
75497;BME280;64074;47.540;19.072;2023-10-19T06:36:09;99802.03;;;10.24;78.78
75497;BME280;64074;47.540;19.072;2023-10-19T06:39:38;99807.63;;;10.28;78.38
75497;BME280;64074;47.540;19.072;2023-10-19T06:42:58;99798.59;;;10.32;78.28
75497;BME280;64074;47.540;19.072;2023-10-19T06:46:38;99795.81;;;10.10;79.39
75497;BME280;64074;47.540;19.072;2023-10-19T06:49:52;99815.94;;;9.81;80.17
75497;BME280;64074;47.540;19.072;2023-10-19T06:53:34;99813.16;;;9.73;78.73
75497;BME280;64074;47.540;19.072;2023-10-19T06:56:49;99801.59;;;9.81;78.12
75497;BME280;64074;47.540;19.072;2023-10-19T07:00:25;99803.38;;;9.85;78.84
75497;BME280;64074;47.540;19.072;2023-10-19T07:03:40;99795.94;;;9.91;77.82
75497;BME280;64074;47.540;19.072;2023-10-19T07:06:56;99780.09;;;9.98;78.54
75497;BME280;64074;47.540;19.072;2023-10-19T07:10:10;99781.84;;;9.94;78.61
75497;BME280;64074;47.540;19.072;2023-10-19T07:13:24;99805.09;;;9.81;78.44
75497;BME280;64074;47.540;19.072;2023-10-19T07:17:05;99782.03;;;9.98;78.66
75497;BME280;64074;47.540;19.072;2023-10-19T07:20:22;99774.69;;;9.98;78.54
75497;BME280;64074;47.540;19.072;2023-10-19T07:23:50;99763.41;;;10.18;77.15
75497;BME280;64074;47.540;19.072;2023-10-19T07:27:09;99771.53;;;10.18;77.42
75497;BME280;64074;47.540;19.072;2023-10-19T07:30:48;99778.63;;;10.28;77.11
75497;BME280;64074;47.540;19.072;2023-10-19T07:33:58;99769.22;;;10.26;77.20
75497;BME280;64074;47.540;19.072;2023-10-19T07:37:12;99776.47;;;10.39;77.20
75497;BME280;64074;47.540;19.072;2023-10-19T07:40:47;99759.50;;;10.25;77.80
75497;BME280;64074;47.540;19.072;2023-10-19T07:43:59;99751.97;;;10.22;77.75
75497;BME280;64074;47.540;19.072;2023-10-19T07:47:17;99743.56;;;10.09;78.52
75497;BME280;64074;47.540;19.072;2023-10-19T07:50:39;99747.59;;;10.34;78.44
75497;BME280;64074;47.540;19.072;2023-10-19T07:54:08;99754.03;;;10.02;77.96
75497;BME280;64074;47.540;19.072;2023-10-19T07:57:51;99739.59;;;10.15;77.86
75497;BME280;64074;47.540;19.072;2023-10-19T08:01:04;99733.03;;;10.22;77.46
75497;BME280;64074;47.540;19.072;2023-10-19T08:04:37;99731.84;;;10.36;77.29
75497;BME280;64074;47.540;19.072;2023-10-19T08:07:59;99723.66;;;10.28;77.56
75497;BME280;64074;47.540;19.072;2023-10-19T08:11:12;99726.38;;;10.28;77.58
75497;BME280;64074;47.540;19.072;2023-10-19T08:14:40;99721.16;;;10.40;77.57
75497;BME280;64074;47.540;19.072;2023-10-19T08:18:00;99715.03;;;10.26;77.50
75497;BME280;64074;47.540;19.072;2023-10-19T08:21:12;99718.84;;;10.25;77.68
75497;BME280;64074;47.540;19.072;2023-10-19T08:24:22;99709.13;;;10.24;77.33
75497;BME280;64074;47.540;19.072;2023-10-19T08:27:33;99702.19;;;10.40;78.48
75497;BME280;64074;47.540;19.072;2023-10-19T08:30:44;99699.47;;;10.62;77.60
75497;BME280;64074;47.540;19.072;2023-10-19T08:34:08;99710.22;;;10.76;76.89
75497;BME280;64074;47.540;19.072;2023-10-19T08:37:23;99700.34;;;10.80;77.81
75497;BME280;64074;47.540;19.072;2023-10-19T08:40:47;99696.00;;;11.01;76.96
75497;BME280;64074;47.540;19.072;2023-10-19T08:44:07;99689.47;;;11.11;75.29
75497;BME280;64074;47.540;19.072;2023-10-19T08:48:00;99702.69;;;10.20;77.75
75497;BME280;64074;47.540;19.072;2023-10-19T08:51:36;99690.78;;;10.74;76.79
75497;BME280;64074;47.540;19.072;2023-10-19T08:55:10;99682.56;;;10.96;76.32
75497;BME280;64074;47.540;19.072;2023-10-19T08:58:25;99677.66;;;11.07;75.20
75497;BME280;64074;47.540;19.072;2023-10-19T09:01:38;99680.09;;;11.17;75.93
75497;BME280;64074;47.540;19.072;2023-10-19T09:05:17;99671.63;;;11.19;74.89
75497;BME280;64074;47.540;19.072;2023-10-19T09:09:00;99670.84;;;11.27;76.13
75497;BME280;64074;47.540;19.072;2023-10-19T09:12:40;99663.88;;;11.69;74.72
75497;BME280;64074;47.540;19.072;2023-10-19T09:16:04;99675.38;;;11.66;73.90
75497;BME280;64074;47.540;19.072;2023-10-19T09:19:09;99669.78;;;11.62;73.54
75497;BME280;64074;47.540;19.072;2023-10-19T09:22:21;99675.94;;;11.28;74.93
75497;BME280;64074;47.540;19.072;2023-10-19T09:25:34;99658.75;;;11.42;74.25
75497;BME280;64074;47.540;19.072;2023-10-19T09:28:51;99661.00;;;11.74;73.64
75497;BME280;64074;47.540;19.072;2023-10-19T10:53:35;99532.72;;;11.94;75.84
75497;BME280;64074;47.540;19.072;2023-10-19T10:57:19;99525.06;;;11.62;76.47
75497;BME280;64074;47.540;19.072;2023-10-19T11:00:46;99511.47;;;12.35;74.33
75497;BME280;64074;47.540;19.072;2023-10-19T11:04:21;99503.22;;;12.14;74.99
75497;BME280;64074;47.540;19.072;2023-10-19T11:08:11;99499.91;;;12.46;74.02
75497;BME280;64074;47.540;19.072;2023-10-19T11:11:37;99502.94;;;12.07;74.76
75497;BME280;64074;47.540;19.072;2023-10-19T11:15:02;99501.22;;;12.70;73.06
75497;BME280;64074;47.540;19.072;2023-10-19T11:21:55;99487.22;;;13.01;71.77
75497;BME280;64074;47.540;19.072;2023-10-19T11:25:24;99480.31;;;13.03;71.97
75497;BME280;64074;47.540;19.072;2023-10-19T11:29:04;99478.81;;;12.93;71.85
75497;BME280;64074;47.540;19.072;2023-10-19T11:32:24;99477.72;;;13.07;71.28
75497;BME280;64074;47.540;19.072;2023-10-19T11:35:39;99472.88;;;13.33;70.52
75497;BME280;64074;47.540;19.072;2023-10-19T11:39:07;99484.06;;;13.19;70.39
75497;BME280;64074;47.540;19.072;2023-10-19T11:42:36;99462.03;;;13.45;70.22
75497;BME280;64074;47.540;19.072;2023-10-19T11:45:47;99463.84;;;13.41;69.86
75497;BME280;64074;47.540;19.072;2023-10-19T11:49:21;99451.78;;;13.30;70.23
75497;BME280;64074;47.540;19.072;2023-10-19T11:52:33;99462.88;;;13.04;72.05
75497;BME280;64074;47.540;19.072;2023-10-19T11:55:51;99443.06;;;13.37;71.64
75497;BME280;64074;47.540;19.072;2023-10-19T11:59:03;99443.16;;;13.73;69.92
75497;BME280;64074;47.540;19.072;2023-10-19T12:02:15;99442.50;;;13.89;68.96
75497;BME280;64074;47.540;19.072;2023-10-19T12:05:37;99434.31;;;13.76;69.26
75497;BME280;64074;47.540;19.072;2023-10-19T12:08:51;99443.91;;;13.62;69.84
75497;BME280;64074;47.540;19.072;2023-10-19T12:12:08;99430.25;;;14.07;69.15
75497;BME280;64074;47.540;19.072;2023-10-19T12:15:35;99432.09;;;14.15;68.23
75497;BME280;64074;47.540;19.072;2023-10-19T12:18:47;99405.16;;;14.13;68.71
75497;BME280;64074;47.540;19.072;2023-10-19T12:22:12;99418.88;;;13.80;69.38
75497;BME280;64074;47.540;19.072;2023-10-19T12:25:53;99395.34;;;14.37;69.06
75497;BME280;64074;47.540;19.072;2023-10-19T12:29:08;99387.41;;;14.32;67.98
75497;BME280;64074;47.540;19.072;2023-10-19T12:32:41;99394.44;;;14.57;66.95
75497;BME280;64074;47.540;19.072;2023-10-19T12:35:53;99392.78;;;13.34;71.55
75497;BME280;64074;47.540;19.072;2023-10-19T12:39:08;99384.59;;;13.92;70.21
75497;BME280;64074;47.540;19.072;2023-10-19T12:42:18;99386.53;;;13.67;70.69
75497;BME280;64074;47.540;19.072;2023-10-19T12:45:28;99378.44;;;13.46;71.05
75497;BME280;64074;47.540;19.072;2023-10-19T12:48:59;99371.75;;;13.55;71.52
75497;BME280;64074;47.540;19.072;2023-10-19T12:52:19;99369.38;;;13.66;71.28
75497;BME280;64074;47.540;19.072;2023-10-19T12:55:37;99363.69;;;13.59;71.28
75497;BME280;64074;47.540;19.072;2023-10-19T12:58:42;99367.63;;;13.37;71.96
75497;BME280;64074;47.540;19.072;2023-10-19T13:02:08;99361.72;;;13.35;72.12
75497;BME280;64074;47.540;19.072;2023-10-19T13:05:38;99357.09;;;13.60;71.29
75497;BME280;64074;47.540;19.072;2023-10-19T13:08:53;99353.16;;;13.70;71.07
75497;BME280;64074;47.540;19.072;2023-10-19T13:12:02;99348.63;;;13.74;70.73
75497;BME280;64074;47.540;19.072;2023-10-19T13:15:21;99337.81;;;13.41;71.80
75497;BME280;64074;47.540;19.072;2023-10-19T13:18:50;99333.41;;;13.73;71.34
75497;BME280;64074;47.540;19.072;2023-10-19T13:22:09;99335.81;;;13.17;73.04
75497;BME280;64074;47.540;19.072;2023-10-19T13:25:25;99339.63;;;13.49;72.96
75497;BME280;64074;47.540;19.072;2023-10-19T13:28:52;99329.88;;;13.60;72.83
75497;BME280;64074;47.540;19.072;2023-10-19T13:32:28;99325.88;;;13.00;74.59
75497;BME280;64074;47.540;19.072;2023-10-19T13:35:44;99321.34;;;13.37;73.32
75497;BME280;64074;47.540;19.072;2023-10-19T13:38:50;99323.16;;;13.00;74.78
75497;BME280;64074;47.540;19.072;2023-10-19T13:42:05;99330.38;;;13.17;74.69
75497;BME280;64074;47.540;19.072;2023-10-19T13:45:36;99312.84;;;13.75;72.24
75497;BME280;64074;47.540;19.072;2023-10-19T13:48:41;99323.72;;;13.88;72.30
75497;BME280;64074;47.540;19.072;2023-10-19T13:51:47;99311.47;;;13.81;72.37
75497;BME280;64074;47.540;19.072;2023-10-19T13:54:59;99310.59;;;13.90;72.06
75497;BME280;64074;47.540;19.072;2023-10-19T14:02:30;99306.94;;;13.49;73.95
75497;BME280;64074;47.540;19.072;2023-10-19T14:05:56;99300.59;;;13.45;73.77
75497;BME280;64074;47.540;19.072;2023-10-19T14:09:16;99306.03;;;13.33;74.21
75497;BME280;64074;47.540;19.072;2023-10-19T14:12:26;99297.06;;;13.32;74.53
75497;BME280;64074;47.540;19.072;2023-10-19T14:15:34;99297.84;;;13.33;74.61
75497;BME280;64074;47.540;19.072;2023-10-19T14:18:45;99297.16;;;13.36;74.82
75497;BME280;64074;47.540;19.072;2023-10-19T14:22:31;99308.75;;;13.20;75.98
75497;BME280;64074;47.540;19.072;2023-10-19T14:25:43;99286.50;;;13.18;75.94
75497;BME280;64074;47.540;19.072;2023-10-19T14:28:53;99291.66;;;12.99;76.59
75497;BME280;64074;47.540;19.072;2023-10-19T14:32:07;99277.88;;;13.29;75.74
75497;BME280;64074;47.540;19.072;2023-10-19T14:35:49;99268.34;;;13.35;76.24
75497;BME280;64074;47.540;19.072;2023-10-19T14:39:06;99273.00;;;13.34;75.82
75497;BME280;64074;47.540;19.072;2023-10-19T14:42:26;99277.44;;;13.27;76.25
75497;BME280;64074;47.540;19.072;2023-10-19T14:45:35;99282.09;;;13.26;76.59
75497;BME280;64074;47.540;19.072;2023-10-19T14:48:46;99269.03;;;13.32;76.68
75497;BME280;64074;47.540;19.072;2023-10-19T14:51:50;99274.03;;;13.30;77.42
75497;BME280;64074;47.540;19.072;2023-10-19T14:54:59;99273.25;;;13.41;77.34
75497;BME280;64074;47.540;19.072;2023-10-19T14:58:28;99266.50;;;13.02;78.25
75497;BME280;64074;47.540;19.072;2023-10-19T15:01:41;99258.81;;;13.16;77.83
75497;BME280;64074;47.540;19.072;2023-10-19T15:04:50;99256.75;;;13.13;78.41
75497;BME280;64074;47.540;19.072;2023-10-19T15:07:56;99256.13;;;13.41;77.28
75497;BME280;64074;47.540;19.072;2023-10-19T15:11:05;99254.06;;;13.50;76.69
75497;BME280;64074;47.540;19.072;2023-10-19T15:14:18;99254.53;;;13.28;77.73
75497;BME280;64074;47.540;19.072;2023-10-19T15:17:43;99242.91;;;13.06;79.69
75497;BME280;64074;47.540;19.072;2023-10-19T15:21:06;99242.97;;;13.18;79.06
75497;BME280;64074;47.540;19.072;2023-10-19T15:24:24;99239.72;;;13.04;79.58
75497;BME280;64074;47.540;19.072;2023-10-19T15:27:44;99248.47;;;12.98;80.28
75497;BME280;64074;47.540;19.072;2023-10-19T15:30:54;99227.47;;;13.10;79.35
75497;BME280;64074;47.540;19.072;2023-10-19T15:34:07;99230.66;;;13.00;80.34
75497;BME280;64074;47.540;19.072;2023-10-19T15:37:17;99235.38;;;13.24;79.50
75497;BME280;64074;47.540;19.072;2023-10-19T15:40:25;99228.16;;;12.95;80.00
75497;BME280;64074;47.540;19.072;2023-10-19T15:43:37;99209.13;;;13.07;79.71
75497;BME280;64074;47.540;19.072;2023-10-19T15:46:51;99218.66;;;13.01;80.94
75497;BME280;64074;47.540;19.072;2023-10-19T15:50:00;99212.28;;;13.09;80.51
75497;BME280;64074;47.540;19.072;2023-10-19T15:53:07;99204.41;;;13.29;79.22
75497;BME280;64074;47.540;19.072;2023-10-19T15:56:15;99203.25;;;13.30;79.40
75497;BME280;64074;47.540;19.072;2023-10-19T15:59:26;99212.28;;;13.09;80.04
75497;BME280;64074;47.540;19.072;2023-10-19T16:02:43;99213.47;;;13.20;79.57
75497;BME280;64074;47.540;19.072;2023-10-19T16:06:03;99200.78;;;13.24;79.96
75497;BME280;64074;47.540;19.072;2023-10-19T16:09:15;99210.94;;;13.03;79.72
75497;BME280;64074;47.540;19.072;2023-10-19T16:12:33;99210.47;;;13.13;79.49
75497;BME280;64074;47.540;19.072;2023-10-19T16:15:37;99204.38;;;12.92;80.62
75497;BME280;64074;47.540;19.072;2023-10-19T16:18:48;99202.22;;;12.98;81.08
75497;BME280;64074;47.540;19.072;2023-10-19T16:21:54;99206.63;;;13.02;79.83
75497;BME280;64074;47.540;19.072;2023-10-19T16:25:04;99197.44;;;12.94;80.85
75497;BME280;64074;47.540;19.072;2023-10-19T16:28:19;99203.78;;;13.11;80.46
75497;BME280;64074;47.540;19.072;2023-10-19T16:31:43;99194.50;;;13.00;80.62
75497;BME280;64074;47.540;19.072;2023-10-19T16:34:50;99204.78;;;12.70;81.75
75497;BME280;64074;47.540;19.072;2023-10-19T16:38:00;99202.78;;;13.03;81.01
75497;BME280;64074;47.540;19.072;2023-10-19T16:41:18;99201.53;;;13.01;81.16
75497;BME280;64074;47.540;19.072;2023-10-19T16:44:35;99187.75;;;13.18;80.23
75497;BME280;64074;47.540;19.072;2023-10-19T16:47:51;99187.69;;;12.93;81.14
75497;BME280;64074;47.540;19.072;2023-10-19T16:51:23;99183.31;;;13.26;80.31
75497;BME280;64074;47.540;19.072;2023-10-19T16:54:35;99183.53;;;13.20;79.96
75497;BME280;64074;47.540;19.072;2023-10-19T16:57:48;99186.72;;;13.22;79.96
75497;BME280;64074;47.540;19.072;2023-10-19T17:01:12;99176.47;;;12.95;80.58
75497;BME280;64074;47.540;19.072;2023-10-19T17:04:31;99176.06;;;13.17;79.94
75497;BME280;64074;47.540;19.072;2023-10-19T17:07:41;99177.03;;;13.13;80.64
75497;BME280;64074;47.540;19.072;2023-10-19T17:10:52;99160.97;;;13.20;80.40
75497;BME280;64074;47.540;19.072;2023-10-19T17:14:01;99149.75;;;13.21;80.11
75497;BME280;64074;47.540;19.072;2023-10-19T17:17:05;99155.50;;;13.32;79.72
75497;BME280;64074;47.540;19.072;2023-10-19T17:20:15;99160.84;;;13.16;80.55
75497;BME280;64074;47.540;19.072;2023-10-19T17:23:21;99159.25;;;13.15;80.27
75497;BME280;64074;47.540;19.072;2023-10-19T17:26:33;99155.88;;;13.18;80.48
75497;BME280;64074;47.540;19.072;2023-10-19T17:29:54;99150.28;;;13.27;79.82
75497;BME280;64074;47.540;19.072;2023-10-19T17:33:12;99151.09;;;13.28;79.74
75497;BME280;64074;47.540;19.072;2023-10-19T17:36:33;99137.00;;;13.13;80.42
75497;BME280;64074;47.540;19.072;2023-10-19T17:40:02;99140.41;;;13.35;79.58
75497;BME280;64074;47.540;19.072;2023-10-19T17:43:26;99141.09;;;12.95;80.82
75497;BME280;64074;47.540;19.072;2023-10-19T17:46:37;99144.84;;;12.90;81.72
75497;BME280;64074;47.540;19.072;2023-10-19T17:50:07;99125.59;;;13.20;80.19
75497;BME280;64074;47.540;19.072;2023-10-19T17:53:31;99127.19;;;13.21;79.66
75497;BME280;64074;47.540;19.072;2023-10-19T17:56:41;99125.31;;;12.88;81.68
75497;BME280;64074;47.540;19.072;2023-10-19T18:00:20;99124.31;;;13.05;81.10
75497;BME280;64074;47.540;19.072;2023-10-19T18:03:31;99138.84;;;12.97;80.96
75497;BME280;64074;47.540;19.072;2023-10-19T18:06:53;99110.03;;;13.08;80.50
75497;BME280;64074;47.540;19.072;2023-10-19T18:10:14;99123.53;;;12.80;81.97
75497;BME280;64074;47.540;19.072;2023-10-19T18:13:39;99098.25;;;13.16;81.28
75497;BME280;64074;47.540;19.072;2023-10-19T18:16:56;99099.38;;;13.15;80.41
75497;BME280;64074;47.540;19.072;2023-10-19T18:19:59;99102.53;;;13.05;80.53
75497;BME280;64074;47.540;19.072;2023-10-19T18:23:11;99095.28;;;13.09;79.70
75497;BME280;64074;47.540;19.072;2023-10-19T18:26:19;99100.50;;;13.14;79.66
75497;BME280;64074;47.540;19.072;2023-10-19T18:29:27;99111.84;;;13.16;79.94
75497;BME280;64074;47.540;19.072;2023-10-19T18:32:32;99097.78;;;13.14;80.48
75497;BME280;64074;47.540;19.072;2023-10-19T18:35:36;99100.50;;;13.14;80.62
75497;BME280;64074;47.540;19.072;2023-10-19T18:38:47;99093.38;;;12.98;81.35
75497;BME280;64074;47.540;19.072;2023-10-19T18:42:16;99087.84;;;12.94;81.26
75497;BME280;64074;47.540;19.072;2023-10-19T18:45:35;99069.78;;;13.02;80.21
75497;BME280;64074;47.540;19.072;2023-10-19T18:48:57;99061.06;;;12.96;81.08